sensor_id;sensor_type;location;lat;lon;timestamp;temperature;humidity
15690;DHT22;7945;48.816;11.506;2023-09-19T00:01:34;18.80;99.90
15690;DHT22;7945;48.816;11.506;2023-09-19T00:04:03;18.80;99.90
15690;DHT22;7945;48.816;11.506;2023-09-19T00:06:35;18.80;99.90
15690;DHT22;7945;48.816;11.506;2023-09-19T00:09:02;18.80;99.90
15690;DHT22;7945;48.816;11.506;2023-09-19T00:11:29;18.80;99.90
15690;DHT22;7945;48.816;11.506;2023-09-19T00:13:56;18.80;99.90
15690;DHT22;7945;48.816;11.506;2023-09-19T00:16:25;18.70;99.90
15690;DHT22;7945;48.816;11.506;2023-09-19T00:18:52;18.70;99.90
15690;DHT22;7945;48.816;11.506;2023-09-19T00:21:20;18.70;99.90
15690;DHT22;7945;48.816;11.506;2023-09-19T00:23:47;18.80;99.90
15690;DHT22;7945;48.816;11.506;2023-09-19T00:26:14;18.80;99.90
15690;DHT22;7945;48.816;11.506;2023-09-19T00:28:43;18.80;99.90
15690;DHT22;7945;48.816;11.506;2023-09-19T00:31:10;18.80;99.90
15690;DHT22;7945;48.816;11.506;2023-09-19T00:33:37;18.80;99.90
15690;DHT22;7945;48.816;11.506;2023-09-19T00:36:04;18.80;99.90
15690;DHT22;7945;48.816;11.506;2023-09-19T00:38:32;18.80;99.90
15690;DHT22;7945;48.816;11.506;2023-09-19T00:40:59;18.80;99.90
15690;DHT22;7945;48.816;11.506;2023-09-19T00:43:26;18.80;99.90
15690;DHT22;7945;48.816;11.506;2023-09-19T00:45:55;18.80;99.90
15690;DHT22;7945;48.816;11.506;2023-09-19T00:48:22;18.80;99.90
15690;DHT22;7945;48.816;11.506;2023-09-19T00:50:50;18.80;99.90
15690;DHT22;7945;48.816;11.506;2023-09-19T00:53:21;18.80;99.90
15690;DHT22;7945;48.816;11.506;2023-09-19T00:55:50;18.80;99.90
15690;DHT22;7945;48.816;11.506;2023-09-19T00:58:18;18.80;99.90
15690;DHT22;7945;48.816;11.506;2023-09-19T01:00:47;18.70;99.90
15690;DHT22;7945;48.816;11.506;2023-09-19T01:03:14;18.70;99.90
15690;DHT22;7945;48.816;11.506;2023-09-19T01:05:41;18.60;99.90
15690;DHT22;7945;48.816;11.506;2023-09-19T01:08:09;18.60;99.90
15690;DHT22;7945;48.816;11.506;2023-09-19T01:10:43;18.60;99.90
15690;DHT22;7945;48.816;11.506;2023-09-19T01:13:18;18.60;99.90
15690;DHT22;7945;48.816;11.506;2023-09-19T01:15:54;18.60;99.90
15690;DHT22;7945;48.816;11.506;2023-09-19T01:18:29;18.60;99.90
15690;DHT22;7945;48.816;11.506;2023-09-19T01:21:07;18.60;99.90
15690;DHT22;7945;48.816;11.506;2023-09-19T01:23:51;18.60;99.90
15690;DHT22;7945;48.816;11.506;2023-09-19T01:26:30;18.70;99.90
15690;DHT22;7945;48.816;11.506;2023-09-19T01:29:26;18.60;99.90
15690;DHT22;7945;48.816;11.506;2023-09-19T01:32:04;18.70;99.90
15690;DHT22;7945;48.816;11.506;2023-09-19T01:34:43;18.60;99.90
15690;DHT22;7945;48.816;11.506;2023-09-19T01:37:12;18.70;99.90
15690;DHT22;7945;48.816;11.506;2023-09-19T01:39:39;18.70;99.90
15690;DHT22;7945;48.816;11.506;2023-09-19T01:42:11;18.60;99.90
15690;DHT22;7945;48.816;11.506;2023-09-19T01:44:54;18.60;99.90
15690;DHT22;7945;48.816;11.506;2023-09-19T01:47:31;18.60;99.90
15690;DHT22;7945;48.816;11.506;2023-09-19T01:50:06;18.60;99.90
15690;DHT22;7945;48.816;11.506;2023-09-19T01:52:40;18.70;99.90
15690;DHT22;7945;48.816;11.506;2023-09-19T01:55:10;18.70;99.90
15690;DHT22;7945;48.816;11.506;2023-09-19T01:57:43;18.70;99.90
15690;DHT22;7945;48.816;11.506;2023-09-19T02:00:13;18.70;99.90
15690;DHT22;7945;48.816;11.506;2023-09-19T02:02:45;18.70;99.90
15690;DHT22;7945;48.816;11.506;2023-09-19T02:05:13;18.70;99.90
15690;DHT22;7945;48.816;11.506;2023-09-19T02:07:40;18.70;99.90
15690;DHT22;7945;48.816;11.506;2023-09-19T02:10:07;18.70;99.90
15690;DHT22;7945;48.816;11.506;2023-09-19T02:12:35;18.70;99.90
15690;DHT22;7945;48.816;11.506;2023-09-19T02:15:02;18.70;99.90
15690;DHT22;7945;48.816;11.506;2023-09-19T02:17:32;18.60;99.90
15690;DHT22;7945;48.816;11.506;2023-09-19T02:20:00;18.60;99.90
15690;DHT22;7945;48.816;11.506;2023-09-19T02:22:27;18.60;99.90
15690;DHT22;7945;48.816;11.506;2023-09-19T02:24:55;18.70;99.90
15690;DHT22;7945;48.816;11.506;2023-09-19T02:27:24;18.60;99.90
15690;DHT22;7945;48.816;11.506;2023-09-19T02:29:51;18.70;99.90
15690;DHT22;7945;48.816;11.506;2023-09-19T02:32:17;18.70;99.90
15690;DHT22;7945;48.816;11.506;2023-09-19T02:34:44;18.60;99.90
15690;DHT22;7945;48.816;11.506;2023-09-19T02:37:12;18.70;99.90
15690;DHT22;7945;48.816;11.506;2023-09-19T02:39:41;18.60;99.90
15690;DHT22;7945;48.816;11.506;2023-09-19T02:42:08;18.60;99.90
15690;DHT22;7945;48.816;11.506;2023-09-19T02:44:35;18.60;99.90
15690;DHT22;7945;48.816;11.506;2023-09-19T02:47:03;18.60;99.90
15690;DHT22;7945;48.816;11.506;2023-09-19T02:49:30;18.60;99.90
15690;DHT22;7945;48.816;11.506;2023-09-19T02:51:57;18.60;99.90
15690;DHT22;7945;48.816;11.506;2023-09-19T02:54:26;18.60;99.90
15690;DHT22;7945;48.816;11.506;2023-09-19T02:56:53;18.60;99.90
15690;DHT22;7945;48.816;11.506;2023-09-19T02:59:20;18.60;99.90
15690;DHT22;7945;48.816;11.506;2023-09-19T03:01:47;18.60;99.90
15690;DHT22;7945;48.816;11.506;2023-09-19T03:04:14;18.50;99.90
15690;DHT22;7945;48.816;11.506;2023-09-19T03:06:43;18.50;99.90
15690;DHT22;7945;48.816;11.506;2023-09-19T03:09:10;18.50;99.90
15690;DHT22;7945;48.816;11.506;2023-09-19T03:11:38;18.60;99.90
15690;DHT22;7945;48.816;11.506;2023-09-19T03:14:05;18.60;99.90
15690;DHT22;7945;48.816;11.506;2023-09-19T03:16:32;18.50;99.90
15690;DHT22;7945;48.816;11.506;2023-09-19T03:18:59;18.50;99.90
15690;DHT22;7945;48.816;11.506;2023-09-19T03:21:26;18.40;99.90
15690;DHT22;7945;48.816;11.506;2023-09-19T03:23:55;18.40;99.90
15690;DHT22;7945;48.816;11.506;2023-09-19T03:26:21;18.30;99.90
15690;DHT22;7945;48.816;11.506;2023-09-19T03:28:51;18.20;99.90
15690;DHT22;7945;48.816;11.506;2023-09-19T03:31:18;18.20;99.90
15690;DHT22;7945;48.816;11.506;2023-09-19T03:33:45;18.20;99.90
15690;DHT22;7945;48.816;11.506;2023-09-19T03:36:11;18.20;99.90
15690;DHT22;7945;48.816;11.506;2023-09-19T03:38:39;18.10;99.90
15690;DHT22;7945;48.816;11.506;2023-09-19T03:41:06;18.10;99.90
15690;DHT22;7945;48.816;11.506;2023-09-19T03:43:33;18.10;99.90
15690;DHT22;7945;48.816;11.506;2023-09-19T03:46:02;18.10;99.90
15690;DHT22;7945;48.816;11.506;2023-09-19T03:48:30;18.10;99.90
15690;DHT22;7945;48.816;11.506;2023-09-19T03:50:57;18.10;99.90
15690;DHT22;7945;48.816;11.506;2023-09-19T03:53:24;18.10;99.90
15690;DHT22;7945;48.816;11.506;2023-09-19T03:55:51;18.10;99.90
15690;DHT22;7945;48.816;11.506;2023-09-19T03:58:17;18.20;99.90
15690;DHT22;7945;48.816;11.506;2023-09-19T04:00:44;18.40;99.90
15690;DHT22;7945;48.816;11.506;2023-09-19T04:03:12;18.60;99.90
15690;DHT22;7945;48.816;11.506;2023-09-19T04:05:45;18.50;99.90
15690;DHT22;7945;48.816;11.506;2023-09-19T04:08:12;18.50;99.90
15690;DHT22;7945;48.816;11.506;2023-09-19T04:10:41;18.40;99.90
15690;DHT22;7945;48.816;11.506;2023-09-19T04:13:07;18.30;99.90
15690;DHT22;7945;48.816;11.506;2023-09-19T04:15:34;18.30;99.90
15690;DHT22;7945;48.816;11.506;2023-09-19T04:18:01;18.30;99.90
15690;DHT22;7945;48.816;11.506;2023-09-19T04:20:30;18.30;99.90
15690;DHT22;7945;48.816;11.506;2023-09-19T04:22:57;18.30;99.90
15690;DHT22;7945;48.816;11.506;2023-09-19T04:25:25;18.30;99.90
15690;DHT22;7945;48.816;11.506;2023-09-19T04:27:52;18.20;99.90
15690;DHT22;7945;48.816;11.506;2023-09-19T04:30:18;18.20;99.90
15690;DHT22;7945;48.816;11.506;2023-09-19T04:32:46;18.20;99.90
15690;DHT22;7945;48.816;11.506;2023-09-19T04:35:16;18.20;99.90
15690;DHT22;7945;48.816;11.506;2023-09-19T04:37:44;18.20;99.90
15690;DHT22;7945;48.816;11.506;2023-09-19T04:40:11;18.10;99.90
15690;DHT22;7945;48.816;11.506;2023-09-19T04:42:42;18.10;99.90
15690;DHT22;7945;48.816;11.506;2023-09-19T04:45:10;18.20;99.90
15690;DHT22;7945;48.816;11.506;2023-09-19T04:47:37;18.10;99.90
15690;DHT22;7945;48.816;11.506;2023-09-19T04:50:06;18.10;99.90
15690;DHT22;7945;48.816;11.506;2023-09-19T04:52:33;18.20;99.90
15690;DHT22;7945;48.816;11.506;2023-09-19T04:55:01;18.20;99.90
15690;DHT22;7945;48.816;11.506;2023-09-19T04:57:30;18.10;99.90
15690;DHT22;7945;48.816;11.506;2023-09-19T04:59:57;18.10;99.90
15690;DHT22;7945;48.816;11.506;2023-09-19T05:02:24;18.10;99.90
15690;DHT22;7945;48.816;11.506;2023-09-19T05:04:50;18.10;99.90
15690;DHT22;7945;48.816;11.506;2023-09-19T05:07:19;18.10;99.90
15690;DHT22;7945;48.816;11.506;2023-09-19T05:09:47;18.10;99.90
15690;DHT22;7945;48.816;11.506;2023-09-19T05:12:15;18.10;99.90
15690;DHT22;7945;48.816;11.506;2023-09-19T05:14:43;18.10;99.90
15690;DHT22;7945;48.816;11.506;2023-09-19T05:17:10;18.00;99.90
15690;DHT22;7945;48.816;11.506;2023-09-19T05:19:37;17.90;99.90
15690;DHT22;7945;48.816;11.506;2023-09-19T05:22:04;17.90;99.90
15690;DHT22;7945;48.816;11.506;2023-09-19T05:24:32;17.90;99.90
15690;DHT22;7945;48.816;11.506;2023-09-19T05:26:59;17.90;99.90
15690;DHT22;7945;48.816;11.506;2023-09-19T05:29:27;17.90;99.90
15690;DHT22;7945;48.816;11.506;2023-09-19T05:31:54;17.90;99.90
15690;DHT22;7945;48.816;11.506;2023-09-19T05:34:21;18.00;99.90
15690;DHT22;7945;48.816;11.506;2023-09-19T05:36:48;18.00;99.90
15690;DHT22;7945;48.816;11.506;2023-09-19T05:39:15;18.00;99.90
15690;DHT22;7945;48.816;11.506;2023-09-19T05:41:42;18.00;99.90
15690;DHT22;7945;48.816;11.506;2023-09-19T05:44:09;18.00;99.90
15690;DHT22;7945;48.816;11.506;2023-09-19T05:46:37;18.00;99.90
15690;DHT22;7945;48.816;11.506;2023-09-19T05:49:03;18.10;99.90
15690;DHT22;7945;48.816;11.506;2023-09-19T05:51:30;18.20;99.90
15690;DHT22;7945;48.816;11.506;2023-09-19T05:53:57;18.40;99.90
15690;DHT22;7945;48.816;11.506;2023-09-19T05:56:24;18.70;99.90
15690;DHT22;7945;48.816;11.506;2023-09-19T05:58:50;19.00;99.90
15690;DHT22;7945;48.816;11.506;2023-09-19T06:01:18;19.20;99.90
15690;DHT22;7945;48.816;11.506;2023-09-19T06:03:47;19.60;99.90
15690;DHT22;7945;48.816;11.506;2023-09-19T06:06:13;19.70;99.90
15690;DHT22;7945;48.816;11.506;2023-09-19T06:08:40;19.80;99.90
15690;DHT22;7945;48.816;11.506;2023-09-19T06:11:09;19.90;99.90
15690;DHT22;7945;48.816;11.506;2023-09-19T06:15:50;20.60;99.90
15690;DHT22;7945;48.816;11.506;2023-09-19T06:18:17;19.80;99.90
15690;DHT22;7945;48.816;11.506;2023-09-19T06:20:45;19.80;99.90
15690;DHT22;7945;48.816;11.506;2023-09-19T06:23:12;19.80;99.90
15690;DHT22;7945;48.816;11.506;2023-09-19T06:25:40;19.80;99.90
15690;DHT22;7945;48.816;11.506;2023-09-19T06:28:08;19.80;99.90
15690;DHT22;7945;48.816;11.506;2023-09-19T06:30:38;19.70;99.90
15690;DHT22;7945;48.816;11.506;2023-09-19T06:33:07;19.70;99.90
15690;DHT22;7945;48.816;11.506;2023-09-19T06:35:37;19.50;99.90
15690;DHT22;7945;48.816;11.506;2023-09-19T06:38:04;19.40;99.90
15690;DHT22;7945;48.816;11.506;2023-09-19T06:40:31;19.40;99.90
15690;DHT22;7945;48.816;11.506;2023-09-19T06:42:58;19.40;99.90
15690;DHT22;7945;48.816;11.506;2023-09-19T06:45:27;19.30;99.90
15690;DHT22;7945;48.816;11.506;2023-09-19T06:47:54;19.40;99.90
15690;DHT22;7945;48.816;11.506;2023-09-19T06:50:24;19.40;99.90
15690;DHT22;7945;48.816;11.506;2023-09-19T06:52:52;19.50;99.90
15690;DHT22;7945;48.816;11.506;2023-09-19T06:55:19;19.50;99.90
15690;DHT22;7945;48.816;11.506;2023-09-19T06:57:47;19.50;99.90
15690;DHT22;7945;48.816;11.506;2023-09-19T07:00:14;19.50;99.90
15690;DHT22;7945;48.816;11.506;2023-09-19T07:02:43;19.40;99.90
15690;DHT22;7945;48.816;11.506;2023-09-19T07:05:10;19.40;99.90
15690;DHT22;7945;48.816;11.506;2023-09-19T07:07:39;19.40;99.90
15690;DHT22;7945;48.816;11.506;2023-09-19T07:10:06;19.40;99.90
15690;DHT22;7945;48.816;11.506;2023-09-19T07:12:35;19.40;99.90
15690;DHT22;7945;48.816;11.506;2023-09-19T07:15:02;19.50;99.90
15690;DHT22;7945;48.816;11.506;2023-09-19T07:17:31;19.50;99.90
15690;DHT22;7945;48.816;11.506;2023-09-19T07:19:58;19.50;99.90
15690;DHT22;7945;48.816;11.506;2023-09-19T07:22:26;19.50;99.90
15690;DHT22;7945;48.816;11.506;2023-09-19T07:24:54;19.40;99.90
15690;DHT22;7945;48.816;11.506;2023-09-19T07:27:21;19.30;99.90
15690;DHT22;7945;48.816;11.506;2023-09-19T07:29:48;19.40;99.90
15690;DHT22;7945;48.816;11.506;2023-09-19T07:32:14;19.40;99.90
15690;DHT22;7945;48.816;11.506;2023-09-19T07:34:42;19.40;99.90
15690;DHT22;7945;48.816;11.506;2023-09-19T07:37:10;19.40;99.90
15690;DHT22;7945;48.816;11.506;2023-09-19T07:39:38;19.50;99.90
15690;DHT22;7945;48.816;11.506;2023-09-19T07:42:08;19.50;99.90
15690;DHT22;7945;48.816;11.506;2023-09-19T07:44:37;19.50;99.90
15690;DHT22;7945;48.816;11.506;2023-09-19T07:47:03;19.50;99.90
15690;DHT22;7945;48.816;11.506;2023-09-19T07:49:30;19.60;99.90
15690;DHT22;7945;48.816;11.506;2023-09-19T07:51:57;19.70;99.90
15690;DHT22;7945;48.816;11.506;2023-09-19T07:54:24;19.80;99.90
15690;DHT22;7945;48.816;11.506;2023-09-19T07:56:52;19.90;99.90
15690;DHT22;7945;48.816;11.506;2023-09-19T07:59:20;20.00;99.90
15690;DHT22;7945;48.816;11.506;2023-09-19T08:01:47;20.00;99.90
15690;DHT22;7945;48.816;11.506;2023-09-19T08:04:14;20.00;99.90
15690;DHT22;7945;48.816;11.506;2023-09-19T08:06:41;20.10;99.90
15690;DHT22;7945;48.816;11.506;2023-09-19T08:09:09;20.10;99.90
15690;DHT22;7945;48.816;11.506;2023-09-19T08:11:36;20.20;99.90
15690;DHT22;7945;48.816;11.506;2023-09-19T08:14:04;20.20;99.90
15690;DHT22;7945;48.816;11.506;2023-09-19T08:16:35;20.20;99.90
15690;DHT22;7945;48.816;11.506;2023-09-19T08:19:02;20.20;99.90
15690;DHT22;7945;48.816;11.506;2023-09-19T08:21:28;20.20;99.90
15690;DHT22;7945;48.816;11.506;2023-09-19T08:23:55;20.30;99.90
15690;DHT22;7945;48.816;11.506;2023-09-19T08:26:22;20.30;99.90
15690;DHT22;7945;48.816;11.506;2023-09-19T08:28:50;20.20;99.90
15690;DHT22;7945;48.816;11.506;2023-09-19T08:31:18;20.20;99.90
15690;DHT22;7945;48.816;11.506;2023-09-19T08:33:47;20.10;99.90
15690;DHT22;7945;48.816;11.506;2023-09-19T08:36:15;20.10;99.90
15690;DHT22;7945;48.816;11.506;2023-09-19T08:38:41;20.00;99.90
15690;DHT22;7945;48.816;11.506;2023-09-19T08:41:08;20.00;99.90
15690;DHT22;7945;48.816;11.506;2023-09-19T08:43:35;20.00;99.90
15690;DHT22;7945;48.816;11.506;2023-09-19T08:46:09;20.00;99.90
15690;DHT22;7945;48.816;11.506;2023-09-19T08:48:39;20.00;99.90
15690;DHT22;7945;48.816;11.506;2023-09-19T08:51:18;19.70;99.90
15690;DHT22;7945;48.816;11.506;2023-09-19T08:53:51;19.50;99.90
15690;DHT22;7945;48.816;11.506;2023-09-19T08:56:19;19.30;99.90
15690;DHT22;7945;48.816;11.506;2023-09-19T08:58:50;19.20;99.90
15690;DHT22;7945;48.816;11.506;2023-09-19T09:01:18;19.00;99.90
15690;DHT22;7945;48.816;11.506;2023-09-19T09:03:51;18.90;99.90
15690;DHT22;7945;48.816;11.506;2023-09-19T09:06:20;18.80;99.90
15690;DHT22;7945;48.816;11.506;2023-09-19T09:08:47;18.70;99.90
15690;DHT22;7945;48.816;11.506;2023-09-19T09:11:15;18.60;99.90
15690;DHT22;7945;48.816;11.506;2023-09-19T09:13:43;18.50;99.90
15690;DHT22;7945;48.816;11.506;2023-09-19T09:16:10;18.50;99.90
15690;DHT22;7945;48.816;11.506;2023-09-19T09:18:38;18.50;99.90
15690;DHT22;7945;48.816;11.506;2023-09-19T09:21:05;18.50;99.90
15690;DHT22;7945;48.816;11.506;2023-09-19T09:23:33;18.50;99.90
15690;DHT22;7945;48.816;11.506;2023-09-19T09:26:00;18.50;99.90
15690;DHT22;7945;48.816;11.506;2023-09-19T09:28:31;18.80;99.90
15690;DHT22;7945;48.816;11.506;2023-09-19T09:30:59;18.60;99.90
15690;DHT22;7945;48.816;11.506;2023-09-19T09:33:28;18.70;99.90
15690;DHT22;7945;48.816;11.506;2023-09-19T09:35:56;18.80;99.90
15690;DHT22;7945;48.816;11.506;2023-09-19T09:38:26;18.80;99.90
15690;DHT22;7945;48.816;11.506;2023-09-19T09:40:56;18.80;99.90
15690;DHT22;7945;48.816;11.506;2023-09-19T09:43:33;18.70;99.90
15690;DHT22;7945;48.816;11.506;2023-09-19T09:46:08;18.50;99.90
15690;DHT22;7945;48.816;11.506;2023-09-19T09:49:00;18.50;99.90
15690;DHT22;7945;48.816;11.506;2023-09-19T09:51:58;18.40;99.90
15690;DHT22;7945;48.816;11.506;2023-09-19T09:54:27;18.40;99.90
15690;DHT22;7945;48.816;11.506;2023-09-19T09:57:01;18.40;99.90
15690;DHT22;7945;48.816;11.506;2023-09-19T09:59:49;18.40;99.90
15690;DHT22;7945;48.816;11.506;2023-09-19T10:02:17;18.30;99.90
15690;DHT22;7945;48.816;11.506;2023-09-19T10:04:50;18.30;99.90
15690;DHT22;7945;48.816;11.506;2023-09-19T10:07:35;18.50;99.90
15690;DHT22;7945;48.816;11.506;2023-09-19T10:10:04;18.50;99.90
15690;DHT22;7945;48.816;11.506;2023-09-19T10:12:45;18.60;99.90
15690;DHT22;7945;48.816;11.506;2023-09-19T10:15:14;18.70;99.90
15690;DHT22;7945;48.816;11.506;2023-09-19T10:17:43;18.80;99.90
15690;DHT22;7945;48.816;11.506;2023-09-19T10:20:15;18.90;99.90
15690;DHT22;7945;48.816;11.506;2023-09-19T10:23:00;18.90;99.90
15690;DHT22;7945;48.816;11.506;2023-09-19T10:25:28;18.90;99.90
15690;DHT22;7945;48.816;11.506;2023-09-19T10:27:58;18.90;99.90
15690;DHT22;7945;48.816;11.506;2023-09-19T10:30:29;19.00;99.90
15690;DHT22;7945;48.816;11.506;2023-09-19T10:33:00;19.10;99.90
15690;DHT22;7945;48.816;11.506;2023-09-19T10:35:27;19.20;99.90
15690;DHT22;7945;48.816;11.506;2023-09-19T10:37:55;19.30;99.90
15690;DHT22;7945;48.816;11.506;2023-09-19T10:40:24;19.50;99.90
15690;DHT22;7945;48.816;11.506;2023-09-19T10:43:01;19.70;99.90
15690;DHT22;7945;48.816;11.506;2023-09-19T10:45:31;19.80;99.90
15690;DHT22;7945;48.816;11.506;2023-09-19T10:47:58;19.90;99.90
15690;DHT22;7945;48.816;11.506;2023-09-19T10:50:30;20.00;99.90
15690;DHT22;7945;48.816;11.506;2023-09-19T10:53:00;20.20;99.90
15690;DHT22;7945;48.816;11.506;2023-09-19T10:55:31;20.40;99.20
15690;DHT22;7945;48.816;11.506;2023-09-19T10:58:00;20.60;98.80
15690;DHT22;7945;48.816;11.506;2023-09-19T11:00:30;20.70;98.50
15690;DHT22;7945;48.816;11.506;2023-09-19T11:03:19;20.70;98.40
15690;DHT22;7945;48.816;11.506;2023-09-19T11:06:07;20.80;98.20
15690;DHT22;7945;48.816;11.506;2023-09-19T11:08:52;20.90;98.80
15690;DHT22;7945;48.816;11.506;2023-09-19T11:11:41;21.20;98.60
15690;DHT22;7945;48.816;11.506;2023-09-19T11:20:24;21.90;97.50
15690;DHT22;7945;48.816;11.506;2023-09-19T11:23:20;22.10;97.60
15690;DHT22;7945;48.816;11.506;2023-09-19T11:25:51;22.20;97.10
15690;DHT22;7945;48.816;11.506;2023-09-19T11:28:35;22.30;96.70
15690;DHT22;7945;48.816;11.506;2023-09-19T11:34:48;22.10;96.20
15690;DHT22;7945;48.816;11.506;2023-09-19T11:40:28;22.40;95.90
15690;DHT22;7945;48.816;11.506;2023-09-19T11:42:56;22.50;95.50
15690;DHT22;7945;48.816;11.506;2023-09-19T11:48:28;22.70;94.90
15690;DHT22;7945;48.816;11.506;2023-09-19T11:50:57;22.70;95.30
15690;DHT22;7945;48.816;11.506;2023-09-19T11:53:31;22.80;95.40
15690;DHT22;7945;48.816;11.506;2023-09-19T11:56:02;22.90;94.80
15690;DHT22;7945;48.816;11.506;2023-09-19T11:58:32;22.90;95.30
15690;DHT22;7945;48.816;11.506;2023-09-19T12:01:00;22.90;94.40
15690;DHT22;7945;48.816;11.506;2023-09-19T12:03:34;22.90;95.00
15690;DHT22;7945;48.816;11.506;2023-09-19T12:06:12;22.90;94.90
15690;DHT22;7945;48.816;11.506;2023-09-19T12:08:40;23.00;94.70
15690;DHT22;7945;48.816;11.506;2023-09-19T12:11:12;23.00;95.10
15690;DHT22;7945;48.816;11.506;2023-09-19T12:13:42;22.90;95.10
15690;DHT22;7945;48.816;11.506;2023-09-19T12:16:12;22.90;94.60
15690;DHT22;7945;48.816;11.506;2023-09-19T12:18:41;22.80;95.80
15690;DHT22;7945;48.816;11.506;2023-09-19T12:21:25;22.60;95.10
15690;DHT22;7945;48.816;11.506;2023-09-19T12:24:04;22.50;95.30
15690;DHT22;7945;48.816;11.506;2023-09-19T12:26:38;22.50;95.30
15690;DHT22;7945;48.816;11.506;2023-09-19T12:29:13;22.40;95.20
15690;DHT22;7945;48.816;11.506;2023-09-19T12:31:51;22.50;95.80
15690;DHT22;7945;48.816;11.506;2023-09-19T12:34:21;22.50;95.70
15690;DHT22;7945;48.816;11.506;2023-09-19T12:37:03;22.50;95.20
15690;DHT22;7945;48.816;11.506;2023-09-19T12:39:37;22.50;95.60
15690;DHT22;7945;48.816;11.506;2023-09-19T12:42:04;22.60;95.10
15690;DHT22;7945;48.816;11.506;2023-09-19T12:44:34;22.70;95.00
15690;DHT22;7945;48.816;11.506;2023-09-19T12:47:09;22.70;95.20
15690;DHT22;7945;48.816;11.506;2023-09-19T12:49:36;22.90;94.80
15690;DHT22;7945;48.816;11.506;2023-09-19T12:52:05;22.90;95.00
15690;DHT22;7945;48.816;11.506;2023-09-19T12:54:38;22.90;95.00
15690;DHT22;7945;48.816;11.506;2023-09-19T12:57:05;23.00;95.00
15690;DHT22;7945;48.816;11.506;2023-09-19T12:59:32;23.00;94.60
15690;DHT22;7945;48.816;11.506;2023-09-19T13:02:04;23.00;94.80
15690;DHT22;7945;48.816;11.506;2023-09-19T13:04:32;22.90;94.60
15690;DHT22;7945;48.816;11.506;2023-09-19T13:07:07;22.90;94.90
15690;DHT22;7945;48.816;11.506;2023-09-19T13:09:34;22.90;95.10
15690;DHT22;7945;48.816;11.506;2023-09-19T13:12:01;22.80;95.00
15690;DHT22;7945;48.816;11.506;2023-09-19T13:14:30;22.80;94.60
15690;DHT22;7945;48.816;11.506;2023-09-19T13:17:00;22.80;95.00
15690;DHT22;7945;48.816;11.506;2023-09-19T13:19:37;22.90;94.10
15690;DHT22;7945;48.816;11.506;2023-09-19T13:22:06;22.90;94.60
15690;DHT22;7945;48.816;11.506;2023-09-19T13:24:56;22.90;94.20
15690;DHT22;7945;48.816;11.506;2023-09-19T13:27:24;22.90;94.10
15690;DHT22;7945;48.816;11.506;2023-09-19T13:29:52;22.80;94.10
15690;DHT22;7945;48.816;11.506;2023-09-19T13:32:19;22.70;94.00
15690;DHT22;7945;48.816;11.506;2023-09-19T13:34:46;22.70;94.40
15690;DHT22;7945;48.816;11.506;2023-09-19T13:37:15;22.70;94.30
15690;DHT22;7945;48.816;11.506;2023-09-19T13:39:43;22.70;93.90
15690;DHT22;7945;48.816;11.506;2023-09-19T13:42:13;22.90;94.00
15690;DHT22;7945;48.816;11.506;2023-09-19T13:44:39;23.00;94.00
15690;DHT22;7945;48.816;11.506;2023-09-19T13:47:07;23.00;92.80
15690;DHT22;7945;48.816;11.506;2023-09-19T13:49:36;23.10;93.40
15690;DHT22;7945;48.816;11.506;2023-09-19T13:52:04;23.20;92.30
15690;DHT22;7945;48.816;11.506;2023-09-19T13:54:32;23.20;91.90
15690;DHT22;7945;48.816;11.506;2023-09-19T13:56:59;23.20;91.70
15690;DHT22;7945;48.816;11.506;2023-09-19T13:59:26;23.20;92.10
15690;DHT22;7945;48.816;11.506;2023-09-19T14:01:54;23.20;91.30
15690;DHT22;7945;48.816;11.506;2023-09-19T14:04:21;23.30;91.30
15690;DHT22;7945;48.816;11.506;2023-09-19T14:06:48;23.30;90.80
15690;DHT22;7945;48.816;11.506;2023-09-19T14:09:15;23.20;91.10
15690;DHT22;7945;48.816;11.506;2023-09-19T14:11:46;23.20;91.00
15690;DHT22;7945;48.816;11.506;2023-09-19T14:14:13;23.20;90.70
15690;DHT22;7945;48.816;11.506;2023-09-19T14:16:40;23.20;91.30
15690;DHT22;7945;48.816;11.506;2023-09-19T14:19:07;23.30;91.90
15690;DHT22;7945;48.816;11.506;2023-09-19T14:21:34;23.40;91.60
15690;DHT22;7945;48.816;11.506;2023-09-19T14:24:02;23.50;91.70
15690;DHT22;7945;48.816;11.506;2023-09-19T14:26:29;23.50;91.70
15690;DHT22;7945;48.816;11.506;2023-09-19T14:28:57;23.50;91.80
15690;DHT22;7945;48.816;11.506;2023-09-19T14:31:23;23.50;91.70
15690;DHT22;7945;48.816;11.506;2023-09-19T14:33:53;23.50;91.50
15690;DHT22;7945;48.816;11.506;2023-09-19T14:36:22;23.50;91.90
15690;DHT22;7945;48.816;11.506;2023-09-19T14:38:52;23.50;91.80
15690;DHT22;7945;48.816;11.506;2023-09-19T14:41:20;23.60;91.80
15690;DHT22;7945;48.816;11.506;2023-09-19T14:43:48;23.50;91.50
15690;DHT22;7945;48.816;11.506;2023-09-19T14:46:16;23.50;91.20
15690;DHT22;7945;48.816;11.506;2023-09-19T14:48:44;23.40;91.80
15690;DHT22;7945;48.816;11.506;2023-09-19T14:51:13;23.40;91.40
15690;DHT22;7945;48.816;11.506;2023-09-19T14:53:40;23.30;91.60
15690;DHT22;7945;48.816;11.506;2023-09-19T14:56:09;23.30;91.60
15690;DHT22;7945;48.816;11.506;2023-09-19T14:58:36;23.40;91.70
15690;DHT22;7945;48.816;11.506;2023-09-19T15:01:05;23.40;92.10
15690;DHT22;7945;48.816;11.506;2023-09-19T15:03:34;23.40;91.90
15690;DHT22;7945;48.816;11.506;2023-09-19T15:06:02;23.40;91.90
15690;DHT22;7945;48.816;11.506;2023-09-19T15:08:30;23.40;92.10
15690;DHT22;7945;48.816;11.506;2023-09-19T15:10:56;23.30;92.00
15690;DHT22;7945;48.816;11.506;2023-09-19T15:13:24;23.30;91.80
15690;DHT22;7945;48.816;11.506;2023-09-19T15:15:58;23.20;94.20
15690;DHT22;7945;48.816;11.506;2023-09-19T15:18:26;23.00;92.20
15690;DHT22;7945;48.816;11.506;2023-09-19T15:20:54;23.00;92.90
15690;DHT22;7945;48.816;11.506;2023-09-19T15:23:21;22.90;92.60
15690;DHT22;7945;48.816;11.506;2023-09-19T15:25:48;22.80;92.60
15690;DHT22;7945;48.816;11.506;2023-09-19T15:28:15;22.70;92.50
15690;DHT22;7945;48.816;11.506;2023-09-19T15:30:42;22.60;92.90
15690;DHT22;7945;48.816;11.506;2023-09-19T15:33:08;22.50;93.00
15690;DHT22;7945;48.816;11.506;2023-09-19T15:35:35;22.70;93.10
15690;DHT22;7945;48.816;11.506;2023-09-19T15:38:04;22.60;93.30
15690;DHT22;7945;48.816;11.506;2023-09-19T15:40:31;22.60;92.60
15690;DHT22;7945;48.816;11.506;2023-09-19T15:42:58;22.70;92.90
15690;DHT22;7945;48.816;11.506;2023-09-19T15:45:25;22.80;93.00
15690;DHT22;7945;48.816;11.506;2023-09-19T15:47:52;22.90;92.40
15690;DHT22;7945;48.816;11.506;2023-09-19T15:50:20;22.80;92.20
15690;DHT22;7945;48.816;11.506;2023-09-19T15:52:53;22.80;92.20
15690;DHT22;7945;48.816;11.506;2023-09-19T15:55:21;22.90;92.40
15690;DHT22;7945;48.816;11.506;2023-09-19T15:57:48;23.20;91.90
15690;DHT22;7945;48.816;11.506;2023-09-19T16:00:15;22.90;93.60
15690;DHT22;7945;48.816;11.506;2023-09-19T16:02:45;23.00;91.90